Time;durP1;ratioP1;P1;durP2;ratioP2;P2;SDS_P1;SDS_P2;PMS_P1;PMS_P2;Temp;Humidity;BMP_temperature;BMP_pressure;BME280_temperature;BME280_humidity;BME280_pressure;Samples;Min_cycle;Max_cycle;Signal;HPM_P1;HPM_P2
2022/02/03 00:01:06;;;;;;;9.73;6.10;;;8.90;99.90;;;;;;5048688;28;20270;-88
2022/02/03 00:04:10;;;;;;;9.30;6.80;;;8.90;99.90;;;;;;5037886;28;20235;-88
2022/02/03 00:07:19;;;;;;;11.50;6.67;;;8.80;99.90;;;;;;5036700;28;20638;-90
2022/02/03 00:22:38;;;;;;;9.75;7.05;;;8.90;99.90;;;;;;5055417;28;20243;-90
2022/02/03 00:25:29;;;;;;;8.80;5.95;;;8.80;99.90;;;;;;5037254;28;20227;-90
2022/02/03 00:28:12;;;;;;;9.52;6.65;;;8.80;99.90;;;;;;5048201;28;20192;-88
2022/02/03 00:31:12;;;;;;;10.23;7.70;;;8.90;99.90;;;;;;5040558;28;20202;-88
2022/02/03 00:34:30;;;;;;;10.10;6.97;;;8.90;99.90;;;;;;5037326;28;20516;-88
2022/02/03 00:38:02;;;;;;;10.43;7.50;;;8.80;99.90;;;;;;4976476;28;20490;-89
2022/02/03 00:50:51;;;;;;;9.83;6.23;;;8.80;99.90;;;;;;5045601;28;20205;-87
2022/02/03 00:59:37;;;;;;;9.77;6.20;;;8.80;99.90;;;;;;5050250;28;20207;-90
2022/02/03 01:02:25;;;;;;;10.20;7.10;;;8.80;99.90;;;;;;5053336;28;20210;-89
2022/02/03 01:05:18;;;;;;;10.83;6.53;;;8.90;99.90;;;;;;5079782;28;20949;-90
2022/02/03 01:08:05;;;;;;;8.80;6.40;;;9.00;99.90;;;;;;5079370;28;20471;-89
2022/02/03 01:11:10;;;;;;;7.70;6.03;;;9.00;99.90;;;;;;5081329;28;20415;-89
2022/02/03 01:13:49;;;;;;;8.50;6.50;;;8.90;99.90;;;;;;5092217;28;20564;-89
2022/02/03 01:16:47;;;;;;;10.07;7.20;;;8.90;99.90;;;;;;5081865;28;20530;-89
2022/02/03 03:30:36;;;;;;;7.57;4.90;;;9.40;99.90;;;;;;5026383;28;20271;-87
2022/02/03 03:33:18;;;;;;;7.80;5.30;;;9.40;99.90;;;;;;5025465;28;20529;-87
2022/02/03 03:35:50;;;;;;;7.13;4.90;;;9.40;99.90;;;;;;5025200;28;20507;-87
2022/02/03 03:38:20;;;;;;;6.33;4.17;;;9.40;99.90;;;;;;5023229;28;20504;-87
2022/02/03 03:40:52;;;;;;;7.47;5.05;;;9.50;99.90;;;;;;5023464;28;20574;-87
2022/02/03 03:43:27;;;;;;;9.60;5.90;;;9.40;99.90;;;;;;5023179;28;20219;-88
2022/02/03 03:45:55;;;;;;;6.97;4.75;;;9.40;99.90;;;;;;5023414;28;20268;-87
2022/02/03 03:48:31;;;;;;;7.23;5.00;;;9.40;99.90;;;;;;5022616;28;20232;-87
2022/02/03 03:51:02;;;;;;;8.45;5.63;;;9.40;99.90;;;;;;5024389;28;20444;-87
2022/02/03 03:53:40;;;;;;;7.32;4.75;;;9.40;99.90;;;;;;5022722;28;20196;-87
2022/02/03 03:56:18;;;;;;;8.60;5.80;;;9.40;99.90;;;;;;5022557;28;20289;-87
2022/02/03 03:59:20;;;;;;;7.03;5.60;;;9.40;99.90;;;;;;5022627;28;20533;-86
2022/02/03 04:39:23;;;;;;;7.50;5.73;;;9.20;99.90;;;;;;5032608;28;20519;-87
2022/02/03 04:42:30;;;;;;;7.10;5.40;;;9.30;99.90;;;;;;5031814;28;20455;-87
2022/02/03 04:45:28;;;;;;;11.07;5.80;;;9.30;99.90;;;;;;5031530;28;20465;-86
2022/02/03 04:51:44;;;;;;;7.47;5.47;;;9.20;99.90;;;;;;5029396;28;20397;-86
2022/02/03 05:03:54;;;;;;;8.65;5.93;;;9.20;99.90;;;;;;5001386;28;20420;-86
2022/02/03 05:06:43;;;;;;;9.37;6.20;;;9.10;99.90;;;;;;5021860;28;20232;-86
2022/02/03 05:09:45;;;;;;;7.67;5.30;;;9.10;99.90;;;;;;5022076;28;20434;-86
2022/02/03 05:12:32;;;;;;;8.67;5.73;;;9.00;99.90;;;;;;5021226;28;20526;-86
2022/02/03 05:18:42;;;;;;;9.93;6.13;;;8.80;99.90;;;;;;5023003;28;20207;-86
2022/02/03 05:22:15;;;;;;;8.90;6.37;;;8.80;99.90;;;;;;5022018;28;20442;-86
2022/02/03 05:34:16;;;;;;;10.45;7.32;;;8.70;99.90;;;;;;5029126;28;20430;-86
2022/02/03 05:42:58;;;;;;;8.50;6.20;;;8.60;99.90;;;;;;5029922;28;20488;-88
2022/02/03 05:48:51;;;;;;;12.02;6.78;;;8.60;99.90;;;;;;5025005;28;20253;-88
2022/02/03 05:51:46;;;;;;;11.53;7.23;;;8.60;99.90;;;;;;5024500;28;20577;-87
2022/02/03 06:03:28;;;;;;;10.32;7.30;;;8.40;99.90;;;;;;5024967;28;20195;-85
2022/02/03 06:06:03;;;;;;;10.48;7.13;;;8.30;99.90;;;;;;5025471;28;20204;-86
2022/02/03 06:08:33;;;;;;;11.80;7.63;;;8.30;99.90;;;;;;5028355;28;20176;-86
2022/02/03 06:13:52;;;;;;;9.40;6.45;;;8.20;99.90;;;;;;5023271;28;20228;-86
2022/02/03 06:16:37;;;;;;;13.20;8.00;;;8.30;99.90;;;;;;5023918;28;20208;-86
2022/02/03 06:21:55;;;;;;;9.68;7.18;;;8.30;99.90;;;;;;5031288;28;20191;-86
2022/02/03 06:24:47;;;;;;;10.02;7.13;;;8.00;99.90;;;;;;5027938;28;20249;-87
2022/02/03 06:27:26;;;;;;;11.87;7.37;;;8.40;99.90;;;;;;5024939;28;20251;-86
2022/02/03 06:29:56;;;;;;;10.67;7.70;;;8.50;99.90;;;;;;5025537;28;20450;-86
2022/02/03 06:32:26;;;;;;;9.60;6.70;;;8.40;99.90;;;;;;5025292;28;20462;-88
2022/02/03 06:34:53;;;;;;;10.07;6.80;;;8.50;99.90;;;;;;5024692;28;20250;-86
2022/02/03 06:37:20;;;;;;;10.63;7.20;;;8.60;99.90;;;;;;5029740;28;20527;-88
2022/02/03 06:39:50;;;;;;;10.25;7.60;;;8.60;99.90;;;;;;5036160;28;20518;-86
2022/02/03 06:42:17;;;;;;;9.75;7.10;;;8.60;99.90;;;;;;5037816;28;20183;-86
2022/02/03 06:44:50;;;;;;;10.23;7.80;;;8.60;99.90;;;;;;5033960;28;20232;-86
2022/02/03 06:47:25;;;;;;;12.10;8.02;;;8.50;99.90;;;;;;5034118;28;20177;-87
2022/02/03 06:49:59;;;;;;;11.07;7.35;;;8.50;99.90;;;;;;5027611;28;20191;-87
2022/02/03 06:52:40;;;;;;;11.63;7.90;;;8.60;99.90;;;;;;5025360;28;20207;-86
2022/02/03 06:55:12;;;;;;;12.30;7.70;;;8.60;99.90;;;;;;5025419;28;20229;-87
2022/02/03 06:57:49;;;;;;;9.93;7.00;;;8.70;99.90;;;;;;5028500;28;20206;-87
2022/02/03 07:00:21;;;;;;;14.17;7.83;;;8.80;99.90;;;;;;5032209;28;20523;-86
2022/02/03 07:03:00;;;;;;;10.97;7.40;;;8.80;99.90;;;;;;5033619;28;20515;-87
2022/02/03 07:05:28;;;;;;;9.83;6.83;;;8.90;99.90;;;;;;5028278;28;20497;-86
2022/02/03 07:07:56;;;;;;;11.67;8.33;;;8.90;99.90;;;;;;5027494;28;20598;-87
2022/02/03 07:10:23;;;;;;;11.57;7.53;;;9.00;99.90;;;;;;5025091;28;20438;-88
2022/02/03 07:12:51;;;;;;;11.80;9.10;;;9.00;99.90;;;;;;5022964;28;20443;-88
2022/02/03 07:15:24;;;;;;;10.97;7.70;;;9.00;99.90;;;;;;5023268;28;20452;-88
2022/02/03 07:17:53;;;;;;;11.63;8.27;;;9.10;99.90;;;;;;5025333;28;20442;-87
2022/02/03 07:20:24;;;;;;;11.33;8.20;;;9.20;99.90;;;;;;5024219;28;20453;-87
2022/02/03 07:22:54;;;;;;;11.33;7.87;;;9.20;99.90;;;;;;5025085;28;20478;-87
2022/02/03 07:25:21;;;;;;;12.60;8.70;;;9.20;99.90;;;;;;5023761;28;20473;-87
2022/02/03 07:27:48;;;;;;;12.40;8.63;;;9.20;99.90;;;;;;5024460;28;20524;-86
2022/02/03 07:30:15;;;;;;;19.10;7.83;;;9.20;99.90;;;;;;5022634;28;20410;-86
2022/02/03 07:32:44;;;;;;;11.87;7.83;;;9.30;99.90;;;;;;5027907;28;20526;-87
2022/02/03 07:35:11;;;;;;;11.60;8.27;;;9.30;99.90;;;;;;5026714;28;20459;-87
2022/02/03 07:37:43;;;;;;;10.87;7.33;;;9.30;99.90;;;;;;5023931;28;20588;-87
2022/02/03 07:40:13;;;;;;;9.97;7.00;;;9.40;99.90;;;;;;5022961;28;20435;-87
2022/02/03 07:42:41;;;;;;;12.30;6.90;;;9.30;99.90;;;;;;5028140;28;20460;-87
2022/02/03 07:45:09;;;;;;;12.13;8.00;;;9.30;99.90;;;;;;5037353;28;20472;-87
2022/02/03 07:47:52;;;;;;;9.83;6.73;;;9.30;99.90;;;;;;5036493;28;20436;-87
2022/02/03 07:50:21;;;;;;;9.63;6.20;;;9.20;99.90;;;;;;5027097;28;20932;-88
2022/02/03 07:52:53;;;;;;;10.03;6.97;;;9.20;99.90;;;;;;5029246;28;20443;-87
2022/02/03 07:55:21;;;;;;;9.98;6.72;;;9.30;99.90;;;;;;5037534;28;20461;-87
2022/02/03 07:57:51;;;;;;;10.60;8.13;;;9.40;99.90;;;;;;5034560;28;20259;-88
2022/02/03 08:00:21;;;;;;;11.70;7.30;;;9.40;99.90;;;;;;5024741;28;20448;-87
2022/02/03 08:02:52;;;;;;;10.80;7.43;;;9.50;99.90;;;;;;5025507;28;20439;-88
2022/02/03 08:05:20;;;;;;;11.90;6.80;;;9.60;99.90;;;;;;5023328;28;20546;-88
2022/02/03 08:08:10;;;;;;;9.70;6.60;;;9.60;99.90;;;;;;5031827;28;20452;-87
2022/02/03 08:10:41;;;;;;;9.50;6.70;;;9.60;99.90;;;;;;5027310;28;20439;-87
2022/02/03 08:13:25;;;;;;;11.00;7.27;;;9.50;99.90;;;;;;5022590;28;20471;-88
2022/02/03 08:16:00;;;;;;;10.57;7.37;;;9.40;99.90;;;;;;5024137;28;20443;-88
2022/02/03 08:18:31;;;;;;;9.80;7.37;;;9.30;99.90;;;;;;5025447;28;20478;-88
2022/02/03 08:21:03;;;;;;;10.10;7.43;;;9.30;99.90;;;;;;5028101;28;20435;-87
2022/02/03 08:24:01;;;;;;;10.33;7.80;;;9.40;99.90;;;;;;5025765;28;20227;-88
2022/02/03 08:26:44;;;;;;;9.80;6.73;;;9.40;99.90;;;;;;5025124;28;20450;-87
2022/02/03 08:29:30;;;;;;;10.93;7.30;;;9.60;99.90;;;;;;5021603;28;20514;-87
2022/02/03 08:32:08;;;;;;;12.27;8.23;;;9.60;99.90;;;;;;5037322;28;20497;-87
2022/02/03 08:34:46;;;;;;;9.63;7.37;;;9.60;99.90;;;;;;5022181;28;20463;-87
2022/02/03 08:37:14;;;;;;;13.63;7.20;;;9.70;99.90;;;;;;5022081;28;20452;-87
2022/02/03 08:40:06;;;;;;;10.47;6.50;;;10.00;99.90;;;;;;5021700;28;20988;-88
2022/02/03 08:42:34;;;;;;;11.00;6.83;;;10.20;99.90;;;;;;5026317;28;20452;-87
2022/02/03 08:45:01;;;;;;;8.77;5.80;;;10.10;99.90;;;;;;5025742;28;20471;-87
2022/02/03 08:47:28;;;;;;;9.13;6.40;;;10.10;99.90;;;;;;5021518;28;20454;-87
2022/02/03 08:49:57;;;;;;;6.37;4.33;;;10.10;99.90;;;;;;5020320;28;20847;-88
2022/02/03 08:52:33;;;;;;;7.73;6.10;;;10.30;99.90;;;;;;5019502;28;20956;-88
2022/02/03 08:55:07;;;;;;;9.43;5.33;;;10.60;99.90;;;;;;5023078;28;20481;-88
2022/02/03 08:57:46;;;;;;;6.60;4.60;;;10.40;99.90;;;;;;5033483;28;20471;-88
2022/02/03 09:39:26;;;;;;;5.03;3.10;;;10.40;99.90;;;;;;5008221;28;20487;-91
2022/02/03 10:56:18;;;;;;;4.23;1.80;;;10.90;99.90;;;;;;5036949;28;20460;-90
2022/02/03 15:28:12;;;;;;;4.80;2.03;;;12.00;99.90;;;;;;4985815;28;20477;-87
2022/02/03 15:30:40;;;;;;;4.73;2.70;;;12.10;99.90;;;;;;4991221;28;20482;-88
2022/02/03 15:33:07;;;;;;;4.90;2.83;;;12.00;99.90;;;;;;4985982;28;20482;-87
2022/02/03 15:35:43;;;;;;;5.73;2.40;;;12.00;99.90;;;;;;4982236;28;20457;-87
2022/02/03 15:38:19;;;;;;;5.53;2.50;;;11.90;99.90;;;;;;4983641;28;20444;-87
2022/02/03 15:40:51;;;;;;;6.23;2.40;;;11.90;99.90;;;;;;4983767;28;20486;-87
2022/02/03 15:43:28;;;;;;;5.40;2.80;;;12.00;99.90;;;;;;4982740;28;20452;-87
2022/02/03 15:46:02;;;;;;;4.30;2.20;;;11.90;99.90;;;;;;4982951;28;20481;-87
2022/02/03 15:48:36;;;;;;;7.37;2.27;;;12.00;99.90;;;;;;4982823;28;20451;-87
2022/02/03 15:51:24;;;;;;;4.60;2.77;;;12.00;99.90;;;;;;4981737;28;20432;-87
2022/02/03 15:56:55;;;;;;;5.80;3.30;;;11.80;99.90;;;;;;4991826;28;20950;-87
2022/02/03 16:13:42;;;;;;;5.60;2.97;;;11.40;99.90;;;;;;4981259;28;20495;-86
2022/02/03 16:18:56;;;;;;;6.83;3.00;;;11.40;99.90;;;;;;4982472;28;20473;-87
2022/02/03 16:21:30;;;;;;;5.47;2.57;;;11.40;99.90;;;;;;4989752;28;20453;-87
2022/02/03 16:24:15;;;;;;;7.07;3.40;;;11.20;99.90;;;;;;4988599;28;20446;-87
2022/02/03 16:41:00;;;;;;;7.43;4.57;;;11.10;99.90;;;;;;4982971;28;20480;-87
2022/02/03 16:52:09;;;;;;;6.30;3.70;;;11.20;99.90;;;;;;4991997;28;20415;-86
2022/02/03 16:54:36;;;;;;;7.97;3.20;;;11.10;99.90;;;;;;4991353;28;20521;-87
2022/02/03 16:57:12;;;;;;;6.20;3.20;;;11.10;99.90;;;;;;4991279;28;20985;-86
2022/02/03 16:59:51;;;;;;;8.10;4.20;;;11.00;99.90;;;;;;4988000;28;20527;-87
2022/02/03 17:02:18;;;;;;;5.40;3.40;;;10.90;99.90;;;;;;4981444;28;20520;-87
2022/02/03 17:04:46;;;;;;;6.90;3.10;;;10.90;99.90;;;;;;4982777;28;20466;-86
2022/02/03 17:07:16;;;;;;;7.07;3.57;;;10.80;99.90;;;;;;4982902;28;20458;-86
2022/02/03 17:09:43;;;;;;;8.23;3.90;;;10.70;99.90;;;;;;4980333;28;20466;-87
2022/02/03 17:12:13;;;;;;;6.20;3.70;;;10.70;99.90;;;;;;4994517;28;20442;-86
2022/02/03 17:14:40;;;;;;;8.63;5.47;;;10.80;99.90;;;;;;4997179;28;20440;-87
2022/02/03 17:17:08;;;;;;;9.20;4.03;;;10.70;99.90;;;;;;4996951;28;20534;-86
2022/02/03 17:19:36;;;;;;;7.40;4.83;;;10.80;99.90;;;;;;4995704;28;20557;-88
2022/02/03 17:22:05;;;;;;;8.13;3.97;;;10.70;99.90;;;;;;4994373;28;20452;-89
2022/02/03 17:24:34;;;;;;;7.90;4.00;;;10.80;99.90;;;;;;4995761;28;20521;-88
2022/02/03 17:27:07;;;;;;;6.07;4.00;;;10.80;99.90;;;;;;4993738;28;20488;-89
2022/02/03 17:29:45;;;;;;;7.23;4.17;;;10.80;99.90;;;;;;4993341;28;20442;-89
2022/02/03 17:32:20;;;;;;;10.63;4.90;;;10.80;99.90;;;;;;4992103;28;20443;-90
2022/02/03 20:17:20;;;;;;;9.98;3.78;;;8.80;99.90;;;;;;3144672;23;20508;-90
2022/02/03 20:20:13;;;;;;;6.90;4.35;;;8.80;99.90;;;;;;5044590;28;20202;-88
2022/02/03 20:22:52;;;;;;;7.13;4.20;;;8.70;99.90;;;;;;5048309;28;20191;-87
2022/02/03 20:26:01;;;;;;;6.22;4.07;;;8.70;99.90;;;;;;5048368;28;20556;-87
2022/02/03 20:29:06;;;;;;;8.55;4.53;;;8.80;99.90;;;;;;5049312;28;20210;-86
2022/02/03 20:31:50;;;;;;;7.10;4.55;;;8.90;99.90;;;;;;4995063;28;20218;-88
2022/02/03 20:34:22;;;;;;;11.73;4.28;;;8.90;99.90;;;;;;4990317;28;20204;-88
2022/02/03 20:37:03;;;;;;;8.35;5.28;;;8.80;99.90;;;;;;5039328;28;20227;-87
2022/02/03 20:39:44;;;;;;;7.30;4.80;;;8.70;99.90;;;;;;5052202;28;20195;-88
2022/02/03 20:42:46;;;;;;;10.10;4.97;;;8.70;99.90;;;;;;5054100;28;20198;-89
2022/02/03 20:55:51;;;;;;;9.57;4.90;;;8.40;99.90;;;;;;5011599;28;20687;-88
2022/02/03 21:02:42;;;;;;;8.20;4.95;;;8.40;99.90;;;;;;5020704;28;20234;-87
2022/02/03 21:05:15;;;;;;;6.70;4.75;;;8.40;99.90;;;;;;4989845;28;20292;-87
2022/02/03 21:08:07;;;;;;;8.43;4.90;;;8.40;99.90;;;;;;5042769;28;20202;-88
2022/02/03 21:10:57;;;;;;;9.07;5.07;;;8.30;99.90;;;;;;5046405;28;20659;-88
2022/02/03 21:14:20;;;;;;;10.30;5.90;;;8.40;99.90;;;;;;5049589;28;20206;-88
2022/02/03 21:17:37;;;;;;;9.52;5.68;;;8.40;99.90;;;;;;4995203;28;20229;-87
2022/02/03 21:20:26;;;;;;;10.50;7.20;;;8.40;99.90;;;;;;5005363;28;20237;-88
2022/02/03 21:32:29;;;;;;;9.10;5.70;;;8.30;99.90;;;;;;5009545;28;20241;-91
2022/02/03 21:38:11;;;;;;;7.78;5.18;;;8.40;99.90;;;;;;5063506;28;20559;-91
2022/02/03 21:44:58;;;;;;;10.30;6.30;;;8.40;99.90;;;;;;4953538;28;20272;-90
2022/02/03 21:47:41;;;;;;;9.18;5.13;;;8.20;99.90;;;;;;5013609;28;20209;-90
2022/02/03 21:50:20;;;;;;;11.32;5.75;;;8.20;99.90;;;;;;5007963;28;20294;-91
2022/02/03 21:56:10;;;;;;;9.35;6.20;;;8.20;99.90;;;;;;5078149;28;20195;-91
2022/02/03 22:02:02;;;;;;;9.20;7.10;;;8.20;99.90;;;;;;5070194;28;20230;-90
2022/02/03 22:04:30;;;;;;;12.95;6.75;;;8.10;99.90;;;;;;5069383;28;20210;-91
2022/02/03 22:10:36;;;;;;;10.30;6.70;;;8.10;99.90;;;;;;5069221;28;20214;-91
2022/02/03 22:19:00;;;;;;;10.73;6.10;;;8.10;99.90;;;;;;5070965;28;20218;-91
2022/02/03 22:21:38;;;;;;;14.25;6.80;;;8.00;99.90;;;;;;5068784;28;20549;-92
2022/02/03 22:24:20;;;;;;;10.32;6.93;;;8.10;99.90;;;;;;5068214;28;20202;-92
2022/02/03 22:39:13;;;;;;;9.98;6.50;;;8.20;99.90;;;;;;5065171;28;20501;-91
2022/02/03 22:44:56;;;;;;;10.07;6.28;;;8.10;99.90;;;;;;5068665;28;20258;-91
2022/02/03 22:56:28;;;;;;;9.50;6.90;;;7.90;99.90;;;;;;5000953;28;20200;-91
2022/02/03 22:59:56;;;;;;;10.35;6.90;;;7.80;99.90;;;;;;5007600;28;20456;-91
2022/02/03 23:05:00;;;;;;;12.82;7.40;;;7.60;99.90;;;;;;5069288;28;20224;-91
2022/02/03 23:07:50;;;;;;;23.83;13.43;;;7.60;99.90;;;;;;5073649;28;20226;-90
2022/02/03 23:14:09;;;;;;;9.90;7.57;;;7.50;99.90;;;;;;4937220;29;20223;-90
2022/02/03 23:16:47;;;;;;;10.75;7.57;;;7.50;99.90;;;;;;5032329;28;20267;-91
2022/02/03 23:20:01;;;;;;;10.52;7.47;;;7.70;99.90;;;;;;5078670;28;20210;-91
2022/02/03 23:22:31;;;;;;;11.55;6.88;;;7.90;99.90;;;;;;5029948;28;20222;-89
2022/02/03 23:25:01;;;;;;;13.93;8.75;;;8.10;99.90;;;;;;5078380;28;20186;-90
2022/02/03 23:30:20;;;;;;;13.10;7.90;;;7.90;99.90;;;;;;5078795;28;20194;-90
2022/02/03 23:32:50;;;;;;;9.85;7.43;;;7.90;99.90;;;;;;5078717;28;20217;-90
2022/02/03 23:35:22;;;;;;;10.30;7.38;;;7.80;99.90;;;;;;5076316;28;20197;-91
2022/02/03 23:37:58;;;;;;;12.85;8.35;;;7.80;99.90;;;;;;5077469;28;20257;-89
2022/02/03 23:40:45;;;;;;;10.15;6.13;;;7.90;99.90;;;;;;5077662;28;20213;-90
